createdAt,value
2017-10-30T00:02:21.018Z,7.53
2017-10-30T00:04:49.256Z,7.83
2017-10-30T00:07:18.278Z,7.97
2017-10-30T00:09:46.531Z,8.60
2017-10-30T00:12:15.558Z,7.83
2017-10-30T00:14:43.838Z,7.33
2017-10-30T00:17:12.088Z,6.50
2017-10-30T00:19:41.105Z,7.37
2017-10-30T00:22:09.388Z,8.63
2017-10-30T00:24:37.719Z,6.73
2017-10-30T00:27:05.971Z,6.90
2017-10-30T00:29:34.258Z,7.67
2017-10-30T00:32:02.524Z,6.70
2017-10-30T00:34:32.406Z,7.90
2017-10-30T00:37:01.445Z,8.40
2017-10-30T00:39:29.687Z,6.67
2017-10-30T00:41:58.724Z,6.83
2017-10-30T00:44:27.006Z,7.40
2017-10-30T00:46:55.292Z,8.40
2017-10-30T00:49:23.574Z,8.60
2017-10-30T00:51:51.831Z,7.20
2017-10-30T00:54:20.084Z,6.97
2017-10-30T00:56:49.106Z,8.07
2017-10-30T00:59:17.423Z,8.20
2017-10-30T01:01:45.682Z,7.10
2017-10-30T01:04:13.944Z,7.87
2017-10-30T01:06:43.075Z,8.20
2017-10-30T01:09:11.324Z,7.03
2017-10-30T01:11:40.342Z,7.27
2017-10-30T01:14:08.596Z,7.50
2017-10-30T01:16:37.615Z,8.20
2017-10-30T01:19:06.396Z,7.90
2017-10-30T01:21:34.710Z,8.03
2017-10-30T01:24:02.954Z,8.40
2017-10-30T01:26:31.979Z,6.57
2017-10-30T01:29:00.273Z,7.10
2017-10-30T01:31:28.528Z,8.00
2017-10-30T01:33:56.775Z,7.03
2017-10-30T01:36:25.025Z,8.73
2017-10-30T01:38:53.259Z,7.10
2017-10-30T01:41:22.282Z,8.00
2017-10-30T01:43:50.578Z,7.37
2017-10-30T01:46:18.863Z,6.33
2017-10-30T01:48:47.135Z,6.80
2017-10-30T01:51:15.414Z,6.70
2017-10-30T01:53:43.700Z,7.17
2017-10-30T01:56:11.959Z,6.73
2017-10-30T01:58:40.200Z,6.67
2017-10-30T02:01:08.444Z,6.97
2017-10-30T02:03:36.700Z,7.87
2017-10-30T02:06:05.012Z,6.53
2017-10-30T02:08:33.379Z,6.80
2017-10-30T02:11:01.616Z,7.37
2017-10-30T02:13:30.671Z,6.53
2017-10-30T02:15:58.943Z,6.57
2017-10-30T02:18:27.522Z,6.40
2017-10-30T02:20:55.774Z,6.20
2017-10-30T02:23:24.819Z,6.60
2017-10-30T02:25:53.088Z,9.27
2017-10-30T02:28:21.378Z,8.53
2017-10-30T02:30:49.616Z,8.33
2017-10-30T02:33:18.655Z,7.23
2017-10-30T02:35:46.896Z,6.60
2017-10-30T02:38:15.159Z,6.23
2017-10-30T02:40:43.397Z,6.60
2017-10-30T02:43:11.671Z,6.83
2017-10-30T02:45:39.921Z,7.23
2017-10-30T02:48:08.939Z,6.30
2017-10-30T02:50:37.237Z,7.60
2017-10-30T02:53:05.511Z,7.20
2017-10-30T02:55:33.803Z,7.40
2017-10-30T02:58:02.075Z,6.30
2017-10-30T03:00:30.360Z,7.03
2017-10-30T03:02:58.624Z,7.17
2017-10-30T03:05:26.864Z,6.23
2017-10-30T03:07:55.127Z,6.83
2017-10-30T03:10:23.354Z,6.30
2017-10-30T03:12:51.656Z,7.10
2017-10-30T03:15:19.900Z,6.23
2017-10-30T03:17:48.932Z,7.30
2017-10-30T03:20:17.224Z,7.00
2017-10-30T03:22:45.509Z,6.40
2017-10-30T03:25:13.749Z,6.77
2017-10-30T03:27:42.759Z,5.97
2017-10-30T03:30:17.106Z,5.90
2017-10-30T03:32:45.375Z,6.07
2017-10-30T03:35:13.666Z,5.10
2017-10-30T03:37:41.923Z,6.07
2017-10-30T03:40:10.167Z,6.87
2017-10-30T03:42:38.422Z,6.17
2017-10-30T03:45:06.690Z,6.77
2017-10-30T03:47:34.950Z,5.77
2017-10-30T03:50:03.211Z,5.97
2017-10-30T03:52:32.231Z,7.00
2017-10-30T03:55:00.547Z,7.70
2017-10-30T03:57:28.790Z,6.93
2017-10-30T03:59:57.087Z,8.43
2017-10-30T04:02:25.364Z,6.33
2017-10-30T04:04:53.651Z,6.23
2017-10-30T04:07:21.912Z,8.00
2017-10-30T04:09:50.209Z,7.27
2017-10-30T04:12:18.475Z,6.27
2017-10-30T04:14:46.714Z,8.87
2017-10-30T04:17:15.057Z,6.67
2017-10-30T04:19:43.349Z,6.17
2017-10-30T04:22:11.614Z,6.50
2017-10-30T04:24:39.858Z,6.70
2017-10-30T04:27:08.879Z,6.03
2017-10-30T04:29:37.496Z,6.10
2017-10-30T04:32:05.747Z,6.60
2017-10-30T04:34:33.988Z,5.90
2017-10-30T04:37:02.259Z,6.57
2017-10-30T04:39:30.503Z,7.07
2017-10-30T04:41:58.864Z,6.50
2017-10-30T04:44:27.278Z,6.50
2017-10-30T04:46:55.554Z,6.20
2017-10-30T04:49:23.983Z,6.47
2017-10-30T04:51:52.318Z,5.07
2017-10-30T04:54:21.418Z,6.23
2017-10-30T04:56:49.670Z,6.57
2017-10-30T04:59:18.707Z,6.43
2017-10-30T05:01:46.960Z,6.87
2017-10-30T05:04:15.980Z,6.07
2017-10-30T05:06:45.362Z,6.03
2017-10-30T05:09:13.694Z,6.43
2017-10-30T05:11:41.947Z,6.67
2017-10-30T05:14:10.250Z,6.03
2017-10-30T05:16:38.484Z,6.90
2017-10-30T05:19:07.509Z,6.20
2017-10-30T05:21:35.790Z,5.80
2017-10-30T05:24:04.042Z,6.00
2017-10-30T05:26:33.060Z,6.43
2017-10-30T05:29:02.194Z,7.63
2017-10-30T05:31:30.435Z,5.93
2017-10-30T05:33:58.715Z,5.87
2017-10-30T05:36:26.963Z,6.53
2017-10-30T05:38:55.209Z,6.40
2017-10-30T05:41:24.300Z,6.63
2017-10-30T05:43:52.587Z,6.20
2017-10-30T05:46:20.855Z,6.23
2017-10-30T05:48:49.163Z,5.80
2017-10-30T05:51:17.399Z,6.03
2017-10-30T05:53:45.704Z,7.30
2017-10-30T05:56:13.959Z,7.73
2017-10-30T05:58:42.207Z,7.37
2017-10-30T06:01:10.473Z,7.43
2017-10-30T06:03:38.835Z,6.63
2017-10-30T06:06:07.201Z,8.00
2017-10-30T06:08:35.447Z,7.33
2017-10-30T06:11:04.487Z,8.20
2017-10-30T06:13:32.727Z,7.00
2017-10-30T06:16:02.394Z,7.80
2017-10-30T06:18:30.669Z,7.43
2017-10-30T06:20:58.928Z,8.70
2017-10-30T06:23:27.172Z,8.70
2017-10-30T06:25:55.515Z,8.83
2017-10-30T06:28:23.850Z,8.73
2017-10-30T06:30:54.155Z,7.80
2017-10-30T06:33:22.397Z,8.90
2017-10-30T06:35:50.677Z,10.10
2017-10-30T06:38:18.973Z,8.10
2017-10-30T06:40:47.243Z,8.60
2017-10-30T06:43:15.532Z,8.30
2017-10-30T06:45:43.802Z,8.00
2017-10-30T06:48:12.806Z,7.77
2017-10-30T06:50:41.047Z,6.70
2017-10-30T06:53:10.075Z,7.53
2017-10-30T06:55:38.327Z,7.27
2017-10-30T06:58:06.654Z,8.37
2017-10-30T07:00:34.895Z,8.83
2017-10-30T07:03:03.923Z,7.73
2017-10-30T07:05:32.226Z,9.90
2017-10-30T07:08:00.498Z,7.43
2017-10-30T07:10:29.771Z,6.97
2017-10-30T07:12:58.188Z,7.93
2017-10-30T07:15:26.498Z,7.20
2017-10-30T07:17:54.753Z,7.23
2017-10-30T07:20:23.002Z,6.47
2017-10-30T07:22:51.263Z,5.70
2017-10-30T07:25:20.314Z,6.00
2017-10-30T07:27:48.594Z,7.50
2017-10-30T07:30:16.834Z,8.43
2017-10-30T07:32:45.871Z,7.30
2017-10-30T07:35:14.122Z,7.57
2017-10-30T07:37:43.147Z,8.50
2017-10-30T07:40:11.395Z,7.07
2017-10-30T07:42:40.433Z,7.00
2017-10-30T07:45:08.699Z,7.20
2017-10-30T07:47:37.005Z,6.80
2017-10-30T07:50:05.276Z,6.73
2017-10-30T07:52:33.603Z,6.53
2017-10-30T07:55:01.956Z,7.63
2017-10-30T07:57:30.214Z,6.47
2017-10-30T07:59:58.485Z,5.43
2017-10-30T08:02:26.801Z,5.37
2017-10-30T08:04:55.063Z,6.77
2017-10-30T08:07:23.348Z,5.93
2017-10-30T08:09:51.602Z,7.87
2017-10-30T08:12:19.849Z,9.00
2017-10-30T08:14:49.623Z,6.87
2017-10-30T08:17:17.877Z,7.50
2017-10-30T08:19:47.258Z,6.00
2017-10-30T08:22:15.943Z,5.30
2017-10-30T08:24:44.291Z,5.67
2017-10-30T08:27:12.535Z,5.90
2017-10-30T08:29:40.867Z,5.70
2017-10-30T08:32:09.119Z,5.97
2017-10-30T08:34:37.415Z,4.63
2017-10-30T08:37:05.691Z,4.80
2017-10-30T08:39:33.959Z,7.57
2017-10-30T08:42:02.221Z,4.43
2017-10-30T08:44:31.351Z,4.90
2017-10-30T08:46:59.599Z,5.83
2017-10-30T08:49:28.625Z,4.17
2017-10-30T08:51:56.891Z,4.57
2017-10-30T08:54:25.163Z,4.40
2017-10-30T08:56:53.429Z,4.80
2017-10-30T08:59:22.642Z,5.50
2017-10-30T09:01:51.651Z,4.07
2017-10-30T09:04:19.912Z,5.17
2017-10-30T09:06:48.935Z,5.37
2017-10-30T09:09:17.231Z,6.70
2017-10-30T09:11:45.483Z,5.33
2017-10-30T09:14:13.732Z,5.27
2017-10-30T09:16:42.622Z,5.57
2017-10-30T09:19:10.979Z,5.33
2017-10-30T09:21:39.242Z,5.03
2017-10-30T09:24:07.493Z,4.30
2017-10-30T09:26:36.544Z,4.80
2017-10-30T09:29:04.818Z,4.83
2017-10-30T09:31:33.079Z,4.83
2017-10-30T09:34:01.384Z,5.20
2017-10-30T09:36:29.668Z,5.70
2017-10-30T09:38:57.950Z,4.73
2017-10-30T09:41:26.206Z,5.73
2017-10-30T09:43:54.454Z,5.70
2017-10-30T09:46:23.487Z,4.70
2017-10-30T09:48:51.790Z,5.57
2017-10-30T09:51:20.075Z,5.13
2017-10-30T09:53:48.450Z,4.73
2017-10-30T09:56:16.708Z,4.20
2017-10-30T09:58:45.015Z,6.20
2017-10-30T10:01:13.310Z,3.90
2017-10-30T10:03:41.569Z,5.07
2017-10-30T10:06:09.847Z,5.53
2017-10-30T10:08:38.134Z,5.57
2017-10-30T10:11:06.775Z,5.00
2017-10-30T10:13:35.102Z,4.77
2017-10-30T10:16:03.354Z,4.37
2017-10-30T10:18:32.373Z,3.90
2017-10-30T10:21:00.615Z,4.30
2017-10-30T10:23:29.644Z,5.00
2017-10-30T10:25:57.879Z,4.40
2017-10-30T10:28:26.132Z,4.77
2017-10-30T10:30:54.378Z,3.90
2017-10-30T10:33:23.400Z,4.73
2017-10-30T10:35:51.644Z,5.23
2017-10-30T10:38:20.666Z,3.67
2017-10-30T10:40:48.916Z,4.80
2017-10-30T10:43:17.171Z,4.23
2017-10-30T10:45:45.414Z,4.60
2017-10-30T10:48:13.676Z,4.67
2017-10-30T10:50:42.684Z,3.67
2017-10-30T10:53:10.938Z,3.90
2017-10-30T10:55:39.951Z,4.40
2017-10-30T10:58:08.978Z,4.70
2017-10-30T11:00:37.224Z,4.30
2017-10-30T11:03:06.244Z,3.63
2017-10-30T11:05:34.492Z,3.93
2017-10-30T11:08:02.831Z,4.33
2017-10-30T11:10:31.110Z,3.43
2017-10-30T11:12:59.398Z,4.17
2017-10-30T11:15:27.659Z,3.97
2017-10-30T11:17:55.956Z,4.23
2017-10-30T11:20:24.221Z,2.87
2017-10-30T11:22:52.463Z,4.73
2017-10-30T11:25:21.487Z,3.70
2017-10-30T11:27:49.755Z,3.73
2017-10-30T11:30:18.778Z,4.43
2017-10-30T11:32:47.062Z,4.50
2017-10-30T11:35:15.350Z,3.80
2017-10-30T11:37:43.622Z,2.77
2017-10-30T11:40:11.888Z,3.03
2017-10-30T11:42:40.192Z,3.60
2017-10-30T11:45:08.458Z,3.33
2017-10-30T11:47:36.700Z,3.30
2017-10-30T11:50:05.721Z,3.73
2017-10-30T11:52:34.036Z,2.90
2017-10-30T11:55:02.288Z,3.10
2017-10-30T11:57:30.531Z,3.00
2017-10-30T11:59:58.795Z,3.60
2017-10-30T12:02:27.039Z,3.00
2017-10-30T12:04:55.304Z,3.00
2017-10-30T12:07:23.543Z,2.30
2017-10-30T12:09:51.808Z,2.47
2017-10-30T12:12:20.077Z,2.83
2017-10-30T12:14:48.327Z,3.00
2017-10-30T12:17:17.460Z,2.70
2017-10-30T12:19:45.719Z,2.40
2017-10-30T12:22:14.002Z,3.13
2017-10-30T12:24:42.996Z,3.30
2017-10-30T12:27:11.836Z,2.70
2017-10-30T12:29:40.184Z,3.13
2017-10-30T12:32:08.467Z,3.10
2017-10-30T12:34:36.743Z,2.80
2017-10-30T12:37:04.991Z,3.47
2017-10-30T12:39:34.015Z,3.00
2017-10-30T12:42:02.312Z,2.90
2017-10-30T12:44:30.582Z,3.40
2017-10-30T12:46:58.826Z,2.70
2017-10-30T12:49:27.859Z,3.20
2017-10-30T12:51:56.099Z,3.40
2017-10-30T12:54:25.154Z,3.20
2017-10-30T12:56:53.412Z,3.60
2017-10-30T12:59:21.659Z,3.00
2017-10-30T13:01:50.675Z,3.00
2017-10-30T13:04:19.804Z,3.50
2017-10-30T13:06:48.117Z,2.80
2017-10-30T13:09:16.448Z,3.40
2017-10-30T13:11:44.692Z,2.60
2017-10-30T13:14:13.026Z,2.90
2017-10-30T13:16:41.312Z,3.07
2017-10-30T13:19:09.687Z,2.93
2017-10-30T13:21:37.972Z,3.60
2017-10-30T13:24:06.237Z,3.73
2017-10-30T13:26:34.526Z,3.37
2017-10-30T13:29:02.791Z,3.33
2017-10-30T13:31:31.046Z,3.73
2017-10-30T13:33:59.379Z,3.73
2017-10-30T13:36:27.660Z,3.60
2017-10-30T13:38:55.933Z,3.50
2017-10-30T13:41:24.188Z,4.90
2017-10-30T13:43:53.193Z,4.20
2017-10-30T13:46:22.418Z,3.50
2017-10-30T13:48:50.660Z,3.60
2017-10-30T13:51:19.683Z,3.67
2017-10-30T13:53:47.942Z,4.50
2017-10-30T13:56:17.470Z,3.73
2017-10-30T13:58:45.827Z,4.30
2017-10-30T14:01:14.165Z,4.60
2017-10-30T14:03:42.406Z,4.03
2017-10-30T14:06:11.439Z,4.47
2017-10-30T14:08:39.670Z,4.60
2017-10-30T14:11:08.719Z,3.73
2017-10-30T14:13:36.989Z,3.90
2017-10-30T14:16:05.254Z,4.30
2017-10-30T14:18:33.549Z,3.20
2017-10-30T14:21:01.805Z,3.50
2017-10-30T14:23:30.806Z,3.80
2017-10-30T14:25:59.070Z,3.23
2017-10-30T14:28:28.115Z,3.30
2017-10-30T14:30:56.391Z,3.57
2017-10-30T14:33:24.626Z,3.00
2017-10-30T14:35:53.667Z,5.00
2017-10-30T14:38:21.909Z,3.20
2017-10-30T14:40:50.941Z,3.40
2017-10-30T14:43:19.179Z,3.30
2017-10-30T14:45:48.202Z,3.30
2017-10-30T14:48:16.451Z,4.60
2017-10-30T14:50:45.000Z,3.30
2017-10-30T14:53:13.271Z,2.80
2017-10-30T14:55:41.554Z,3.10
2017-10-30T14:58:10.667Z,2.60
2017-10-30T15:00:38.936Z,2.50
2017-10-30T15:03:07.178Z,2.57
2017-10-30T15:05:35.442Z,2.37
2017-10-30T15:08:03.728Z,3.63
2017-10-30T15:10:32.751Z,3.00
2017-10-30T15:13:00.993Z,3.00
2017-10-30T15:15:29.296Z,2.80
2017-10-30T15:17:57.535Z,2.67
2017-10-30T15:20:26.617Z,2.60
2017-10-30T15:22:54.876Z,4.47
2017-10-30T15:25:23.149Z,2.60
2017-10-30T15:27:51.430Z,3.50
2017-10-30T15:30:19.694Z,3.10
2017-10-30T15:32:48.001Z,3.07
2017-10-30T15:35:16.286Z,2.80
2017-10-30T15:37:44.550Z,3.13
2017-10-30T15:40:12.826Z,2.90
2017-10-30T15:42:41.079Z,3.00
2017-10-30T15:45:10.113Z,3.07
2017-10-30T15:47:38.354Z,3.30
2017-10-30T15:50:07.393Z,3.20
2017-10-30T15:52:35.639Z,2.90
2017-10-30T15:55:04.674Z,3.10
2017-10-30T15:57:32.921Z,3.60
2017-10-30T16:00:01.947Z,3.27
2017-10-30T16:02:30.205Z,2.70
2017-10-30T16:04:59.235Z,3.17
2017-10-30T16:07:27.491Z,4.00
2017-10-30T16:09:58.958Z,3.10
2017-10-30T16:12:27.218Z,2.83
2017-10-30T16:14:56.256Z,3.37
2017-10-30T16:17:24.502Z,3.60
2017-10-30T16:19:53.531Z,2.77
2017-10-30T16:22:21.787Z,3.70
2017-10-30T16:24:50.067Z,4.43
2017-10-30T16:27:19.100Z,3.13
2017-10-30T16:29:47.392Z,3.10
2017-10-30T16:32:15.646Z,2.80
2017-10-30T16:34:43.936Z,3.00
2017-10-30T16:37:12.231Z,3.17
2017-10-30T16:39:40.480Z,3.30
2017-10-30T16:42:08.745Z,3.80
2017-10-30T16:44:37.963Z,3.30
2017-10-30T16:47:06.231Z,3.53
2017-10-30T16:49:35.251Z,2.93
2017-10-30T16:52:03.527Z,3.10
2017-10-30T16:54:31.782Z,3.33
2017-10-30T16:57:00.824Z,4.03
2017-10-30T16:59:29.140Z,3.50
2017-10-30T17:01:57.803Z,3.90
2017-10-30T17:04:26.059Z,4.03
2017-10-30T17:06:54.329Z,3.43
2017-10-30T17:09:22.594Z,4.17
2017-10-30T17:11:51.635Z,4.23
2017-10-30T17:14:19.922Z,4.10
2017-10-30T17:16:48.198Z,3.90
2017-10-30T17:19:16.441Z,3.80
2017-10-30T17:21:45.477Z,3.80
2017-10-30T17:24:13.720Z,3.60
2017-10-30T17:26:42.764Z,3.60
2017-10-30T17:29:11.004Z,3.13
2017-10-30T17:31:40.028Z,3.80
2017-10-30T17:34:08.284Z,4.23
2017-10-30T17:36:37.312Z,4.37
2017-10-30T17:39:05.588Z,4.80
2017-10-30T17:41:33.862Z,3.50
2017-10-30T17:44:02.118Z,4.10
2017-10-30T17:46:31.149Z,3.60
2017-10-30T17:48:59.431Z,3.27
2017-10-30T17:51:27.696Z,3.90
2017-10-30T17:53:55.948Z,3.80
2017-10-30T17:56:24.967Z,3.60
2017-10-30T17:58:53.226Z,4.20
2017-10-30T18:01:21.503Z,4.13
2017-10-30T18:03:49.752Z,5.03
2017-10-30T18:06:18.015Z,3.60
2017-10-30T18:08:46.282Z,7.67
2017-10-30T18:11:14.555Z,5.73
2017-10-30T18:13:42.816Z,5.40
2017-10-30T18:16:13.121Z,4.73
2017-10-30T18:18:41.383Z,5.03
2017-10-30T18:21:09.650Z,5.30
2017-10-30T18:23:37.929Z,5.30
2017-10-30T18:26:06.212Z,5.70
2017-10-30T18:28:34.486Z,5.27
2017-10-30T18:31:02.782Z,5.50
2017-10-30T18:33:31.032Z,5.30
2017-10-30T18:35:59.312Z,5.10
2017-10-30T18:38:28.504Z,4.20
2017-10-30T18:40:56.746Z,4.70
2017-10-30T18:43:24.995Z,4.70
2017-10-30T18:45:53.263Z,5.13
2017-10-30T18:48:21.524Z,5.60
2017-10-30T18:50:50.602Z,5.83
2017-10-30T18:53:18.830Z,4.87
2017-10-30T18:55:47.097Z,4.80
2017-10-30T18:58:15.353Z,5.03
2017-10-30T19:00:43.658Z,5.60
2017-10-30T19:03:11.971Z,5.83
2017-10-30T19:05:40.235Z,5.30
2017-10-30T19:08:08.500Z,4.53
2017-10-30T19:10:37.507Z,5.73
2017-10-30T19:13:05.784Z,4.80
2017-10-30T19:15:34.053Z,5.50
2017-10-30T19:18:03.106Z,6.53
2017-10-30T19:20:31.379Z,5.10
2017-10-30T19:22:59.641Z,6.00
2017-10-30T19:25:27.935Z,7.43
2017-10-30T19:27:56.209Z,6.20
2017-10-30T19:30:24.467Z,5.87
2017-10-30T19:32:52.729Z,5.50
2017-10-30T19:35:21.738Z,5.43
2017-10-30T19:37:50.002Z,5.43
2017-10-30T19:40:19.033Z,6.27
2017-10-30T19:42:47.303Z,6.47
2017-10-30T19:45:15.580Z,6.07
2017-10-30T19:47:44.603Z,5.30
2017-10-30T19:50:12.864Z,5.40
2017-10-30T19:52:41.990Z,6.20
2017-10-30T19:55:10.238Z,5.47
2017-10-30T19:57:38.512Z,5.47
2017-10-30T20:00:07.608Z,5.80
2017-10-30T20:02:36.642Z,6.53
2017-10-30T20:08:29.550Z,5.80
2017-10-30T20:13:57.598Z,7.17
2017-10-30T20:16:26.625Z,5.80
2017-10-30T20:18:55.371Z,6.60
2017-10-30T20:21:23.687Z,6.70
2017-10-30T20:23:51.941Z,7.30
2017-10-30T20:26:21.014Z,6.27
2017-10-30T20:28:49.364Z,8.00
2017-10-30T20:31:17.633Z,6.70
2017-10-30T20:33:45.874Z,5.70
2017-10-30T20:36:14.131Z,6.70
2017-10-30T20:38:42.376Z,6.23
2017-10-30T20:41:10.636Z,7.93
2017-10-30T20:43:39.653Z,7.67
2017-10-30T20:46:07.917Z,7.40
2017-10-30T20:48:36.934Z,7.83
2017-10-30T20:51:05.191Z,7.00
2017-10-30T20:53:34.203Z,8.13
2017-10-30T20:56:02.525Z,7.43
2017-10-30T20:58:30.768Z,7.80
2017-10-30T21:00:59.024Z,6.77
2017-10-30T21:03:28.045Z,6.20
2017-10-30T21:05:56.286Z,7.10
2017-10-30T21:08:24.554Z,7.43
2017-10-30T21:10:54.342Z,5.70
2017-10-30T21:13:22.595Z,8.10
2017-10-30T21:15:50.834Z,6.37
2017-10-30T21:18:19.090Z,6.27
2017-10-30T21:20:48.486Z,6.10
2017-10-30T21:23:16.744Z,6.20
2017-10-30T21:25:45.751Z,6.27
2017-10-30T21:28:14.007Z,7.20
2017-10-30T21:30:43.759Z,6.10
2017-10-30T21:33:12.808Z,5.13
2017-10-30T21:35:41.048Z,5.50
2017-10-30T21:38:09.304Z,5.57
2017-10-30T21:40:37.549Z,5.40
2017-10-30T21:43:05.806Z,6.20
2017-10-30T21:45:34.047Z,6.30
2017-10-30T21:48:02.318Z,5.97
2017-10-30T21:50:30.566Z,5.53
2017-10-30T21:52:58.946Z,5.30
2017-10-30T21:55:27.241Z,6.10
2017-10-30T21:57:55.500Z,6.20
2017-10-30T22:00:23.748Z,6.33
2017-10-30T22:02:51.998Z,5.20
2017-10-30T22:05:21.007Z,7.07
2017-10-30T22:07:49.267Z,7.27
2017-10-30T22:10:18.712Z,8.07
2017-10-30T22:12:46.977Z,7.27
2017-10-30T22:15:16.014Z,10.17
2017-10-30T22:17:49.169Z,9.10
2017-10-30T22:20:18.174Z,9.13
2017-10-30T22:22:46.430Z,9.30
2017-10-30T22:25:15.444Z,18.77
2017-10-30T22:27:44.471Z,11.73
2017-10-30T22:30:12.729Z,11.87
2017-10-30T22:32:41.863Z,12.27
2017-10-30T22:35:10.119Z,9.23
2017-10-30T22:37:39.312Z,8.63
2017-10-30T22:40:07.583Z,7.40
2017-10-30T22:42:36.606Z,7.10
2017-10-30T22:45:04.867Z,6.77
2017-10-30T22:47:33.888Z,6.43
2017-10-30T22:50:02.143Z,6.60
2017-10-30T22:52:31.178Z,7.17
2017-10-30T22:54:59.424Z,7.20
2017-10-30T22:57:28.445Z,8.00
2017-10-30T22:59:56.689Z,7.60
2017-10-30T23:02:25.723Z,8.17
2017-10-30T23:04:53.966Z,9.83
2017-10-30T23:07:22.238Z,9.90
2017-10-30T23:09:50.491Z,11.17
2017-10-30T23:12:18.750Z,10.30
2017-10-30T23:14:47.037Z,10.43
2017-10-30T23:17:15.302Z,7.63
2017-10-30T23:19:43.565Z,8.60
2017-10-30T23:22:11.806Z,8.73
2017-10-30T23:24:40.081Z,8.33
2017-10-30T23:27:08.346Z,7.50
2017-10-30T23:29:36.632Z,8.60
2017-10-30T23:32:04.889Z,15.30
2017-10-30T23:34:33.135Z,9.30
2017-10-30T23:37:02.166Z,15.33
2017-10-30T23:39:30.419Z,13.03
2017-10-30T23:41:59.234Z,10.70
2017-10-30T23:44:27.482Z,11.03
2017-10-30T23:46:55.761Z,6.70
2017-10-30T23:49:23.992Z,9.13
2017-10-30T23:51:52.293Z,8.40
2017-10-30T23:54:25.437Z,8.93
2017-10-30T23:56:53.712Z,7.33
2017-10-30T23:59:21.941Z,8.17
